createdAt,value
2022-10-22T00:00:45.888Z,99.90
2022-10-22T00:03:13.505Z,99.90
2022-10-22T00:05:41.041Z,99.90
2022-10-22T00:08:08.466Z,99.90
2022-10-22T00:10:37.675Z,99.90
2022-10-22T00:13:05.347Z,99.90
2022-10-22T00:15:32.956Z,99.90
2022-10-22T00:17:59.960Z,99.90
2022-10-22T00:20:27.280Z,99.90
2022-10-22T00:22:54.776Z,99.90
2022-10-22T00:25:21.854Z,99.90
2022-10-22T00:27:51.725Z,99.90
2022-10-22T00:30:19.265Z,99.90
2022-10-22T00:32:46.676Z,99.90
2022-10-22T00:35:14.498Z,99.90
2022-10-22T00:37:42.014Z,99.90
2022-10-22T00:40:09.935Z,99.90
2022-10-22T00:42:36.970Z,99.90
2022-10-22T00:45:11.294Z,99.90
2022-10-22T00:47:43.498Z,99.90
2022-10-22T00:50:28.146Z,99.90
2022-10-22T00:52:55.516Z,99.90
2022-10-22T00:55:24.259Z,99.90
2022-10-22T00:57:55.223Z,99.90
2022-10-22T01:00:23.194Z,99.90
2022-10-22T01:02:51.651Z,99.90
2022-10-22T01:05:19.512Z,99.90
2022-10-22T01:07:51.836Z,99.90
2022-10-22T01:10:39.481Z,99.90
2022-10-22T01:13:13.309Z,99.90
2022-10-22T01:15:48.676Z,99.90
2022-10-22T01:18:29.318Z,99.90
2022-10-22T01:21:08.973Z,99.90
2022-10-22T01:23:51.458Z,99.90
2022-10-22T01:28:49.395Z,99.90
2022-10-22T01:31:17.612Z,99.90
2022-10-22T01:33:46.451Z,99.90
2022-10-22T01:36:14.906Z,99.90
2022-10-22T01:38:43.125Z,99.90
2022-10-22T01:41:11.360Z,99.90
2022-10-22T01:43:38.841Z,99.90
2022-10-22T01:46:07.547Z,99.90
2022-10-22T01:48:38.396Z,99.90
2022-10-22T01:51:16.040Z,99.90
2022-10-22T01:54:02.973Z,99.90
2022-10-22T01:56:30.633Z,99.90
2022-10-22T01:59:07.443Z,99.90
2022-10-22T02:01:53.359Z,99.90
2022-10-22T02:04:26.947Z,99.90
2022-10-22T02:06:56.466Z,99.90
2022-10-22T02:09:24.726Z,99.90
2022-10-22T02:11:52.470Z,99.90
2022-10-22T02:14:20.392Z,99.90
2022-10-22T02:16:49.131Z,99.90
2022-10-22T02:19:25.835Z,99.90
2022-10-22T02:21:54.100Z,99.90
2022-10-22T02:24:21.938Z,99.90
2022-10-22T02:26:55.469Z,99.90
2022-10-22T02:29:26.728Z,99.90
2022-10-22T02:31:56.337Z,99.90
2022-10-22T02:34:24.493Z,99.90
2022-10-22T02:36:52.605Z,99.90
2022-10-22T02:39:21.120Z,99.90
2022-10-22T02:41:56.042Z,99.90
2022-10-22T02:44:23.485Z,99.90
2022-10-22T02:46:54.432Z,99.90
2022-10-22T02:49:22.583Z,99.90
2022-10-22T02:51:50.182Z,99.90
2022-10-22T02:54:17.655Z,99.90
2022-10-22T02:56:45.123Z,99.90
2022-10-22T02:59:12.582Z,99.90
2022-10-22T03:01:43.010Z,99.90
2022-10-22T03:04:13.287Z,99.90
2022-10-22T03:06:44.102Z,99.90
2022-10-22T03:09:11.933Z,99.90
2022-10-22T03:11:39.329Z,99.90
2022-10-22T03:14:06.689Z,99.90
2022-10-22T03:16:34.291Z,99.90
2022-10-22T03:19:02.295Z,99.90
2022-10-22T03:21:43.993Z,99.90
2022-10-22T03:24:17.462Z,99.90
2022-10-22T03:26:46.861Z,99.90
2022-10-22T03:29:15.334Z,99.90
2022-10-22T03:31:42.992Z,99.90
2022-10-22T03:34:12.459Z,99.90
2022-10-22T03:36:40.571Z,99.90
2022-10-22T03:39:08.302Z,99.90
2022-10-22T03:41:35.897Z,99.90
2022-10-22T03:44:04.963Z,99.90
2022-10-22T03:46:32.401Z,99.90
2022-10-22T03:48:59.411Z,99.90
2022-10-22T03:51:28.230Z,99.90
2022-10-22T03:53:55.885Z,99.90
2022-10-22T03:56:23.440Z,99.90
2022-10-22T03:58:50.890Z,99.90
2022-10-22T04:01:18.317Z,99.90
2022-10-22T04:03:45.865Z,99.90
2022-10-22T04:06:13.676Z,99.90
2022-10-22T04:08:41.551Z,99.90
2022-10-22T04:11:09.228Z,99.90
2022-10-22T04:13:36.941Z,99.90
2022-10-22T04:16:11.737Z,99.90
2022-10-22T04:18:40.181Z,99.90
2022-10-22T04:21:08.286Z,99.90
2022-10-22T04:23:35.845Z,99.90
2022-10-22T04:26:05.136Z,99.90
2022-10-22T04:28:32.631Z,99.90
2022-10-22T04:31:00.108Z,99.90
2022-10-22T04:33:27.691Z,99.90
2022-10-22T04:35:55.253Z,99.90
2022-10-22T04:38:22.717Z,99.90
2022-10-22T04:40:50.245Z,99.90
2022-10-22T04:43:17.704Z,99.90
2022-10-22T04:45:45.155Z,99.90
2022-10-22T04:48:12.741Z,99.90
2022-10-22T04:50:40.158Z,99.90
2022-10-22T04:53:10.015Z,99.90
2022-10-22T04:55:37.514Z,99.90
2022-10-22T04:58:06.540Z,99.90
2022-10-22T05:00:33.944Z,99.90
2022-10-22T05:03:01.300Z,99.90
2022-10-22T05:05:28.696Z,99.90
2022-10-22T05:07:56.504Z,99.90
2022-10-22T05:10:24.055Z,99.90
2022-10-22T05:12:51.544Z,99.90
2022-10-22T05:15:18.963Z,99.90
2022-10-22T05:17:46.408Z,99.90
2022-10-22T05:20:15.363Z,99.90
2022-10-22T05:22:42.926Z,99.90
2022-10-22T05:25:10.369Z,99.90
2022-10-22T05:27:38.104Z,99.90
2022-10-22T05:30:06.089Z,99.90
2022-10-22T05:32:35.163Z,99.90
2022-10-22T05:35:02.487Z,99.90
2022-10-22T05:37:29.857Z,99.90
2022-10-22T05:40:06.615Z,99.90
2022-10-22T05:42:44.273Z,99.90
2022-10-22T05:45:11.590Z,99.90
2022-10-22T05:47:39.164Z,99.90
2022-10-22T05:50:06.941Z,99.90
2022-10-22T05:52:34.621Z,99.90
2022-10-22T05:55:05.615Z,99.90
2022-10-22T05:57:32.386Z,99.90
2022-10-22T06:00:01.971Z,99.90
2022-10-22T06:02:40.934Z,99.90
2022-10-22T06:05:08.734Z,99.90
2022-10-22T06:07:36.069Z,99.90
2022-10-22T06:10:03.931Z,99.90
2022-10-22T06:12:31.354Z,99.90
2022-10-22T06:14:58.919Z,99.90
2022-10-22T06:17:25.876Z,99.90
2022-10-22T06:19:53.438Z,99.90
2022-10-22T06:22:20.990Z,99.90
2022-10-22T06:24:48.517Z,99.90
2022-10-22T06:27:18.203Z,99.90
2022-10-22T06:29:48.839Z,99.90
2022-10-22T06:32:16.289Z,99.90
2022-10-22T06:34:43.377Z,99.90
2022-10-22T06:37:10.521Z,99.90
2022-10-22T06:39:39.610Z,99.90
2022-10-22T06:42:06.517Z,99.90
2022-10-22T06:44:34.470Z,99.90
2022-10-22T06:47:02.251Z,99.90
2022-10-22T06:49:29.066Z,99.90
2022-10-22T06:51:55.942Z,99.90
2022-10-22T06:54:23.214Z,99.90
2022-10-22T06:56:50.185Z,99.90
2022-10-22T06:59:17.444Z,99.90
2022-10-22T07:01:44.885Z,99.90
2022-10-22T07:04:11.892Z,99.90
2022-10-22T07:06:38.906Z,99.90
2022-10-22T07:09:06.398Z,99.90
2022-10-22T07:11:44.070Z,99.90
2022-10-22T07:14:11.542Z,99.90
2022-10-22T07:16:38.894Z,99.90
2022-10-22T07:19:05.970Z,99.90
2022-10-22T07:21:32.834Z,99.90
2022-10-22T07:23:59.738Z,99.90
2022-10-22T07:26:31.037Z,99.90
2022-10-22T07:28:59.268Z,99.90
2022-10-22T07:31:26.472Z,99.90
2022-10-22T07:33:53.947Z,99.90
2022-10-22T07:36:21.082Z,99.90
2022-10-22T07:38:49.299Z,99.90
2022-10-22T07:41:16.812Z,99.90
2022-10-22T07:43:43.636Z,99.90
2022-10-22T07:46:10.651Z,99.90
2022-10-22T07:48:37.786Z,99.90
2022-10-22T07:51:04.653Z,99.90
2022-10-22T07:53:31.541Z,99.90
2022-10-22T07:55:58.867Z,99.90
2022-10-22T07:58:25.687Z,99.90
2022-10-22T08:00:55.858Z,99.90
2022-10-22T08:03:23.373Z,99.90
2022-10-22T08:05:52.032Z,99.90
2022-10-22T08:08:19.719Z,99.90
2022-10-22T08:10:48.052Z,99.90
2022-10-22T08:13:15.242Z,99.90
2022-10-22T08:18:14.550Z,99.90
2022-10-22T08:20:42.224Z,99.90
2022-10-22T08:23:09.078Z,99.90
2022-10-22T08:25:35.881Z,99.90
2022-10-22T08:28:02.644Z,99.90
2022-10-22T08:30:29.948Z,99.90
2022-10-22T08:32:56.795Z,99.90
2022-10-22T08:35:23.792Z,99.90
2022-10-22T08:37:50.560Z,99.90
2022-10-22T08:40:29.087Z,99.90
2022-10-22T08:43:07.132Z,99.90
2022-10-22T08:45:54.571Z,99.90
2022-10-22T08:48:42.876Z,99.90
2022-10-22T08:51:16.168Z,99.90
2022-10-22T08:53:50.063Z,99.90
2022-10-22T08:56:17.554Z,99.90
2022-10-22T08:58:45.101Z,99.90
2022-10-22T09:01:13.781Z,99.90
2022-10-22T09:03:51.577Z,99.90
2022-10-22T09:06:21.337Z,99.90
2022-10-22T09:08:49.403Z,99.90
2022-10-22T09:11:25.183Z,99.90
2022-10-22T09:13:54.956Z,99.90
2022-10-22T09:16:37.739Z,99.90
2022-10-22T09:19:14.579Z,99.90
2022-10-22T09:21:42.091Z,99.90
2022-10-22T09:24:14.269Z,99.90
2022-10-22T09:26:41.766Z,99.90
2022-10-22T09:29:14.183Z,99.90
2022-10-22T09:31:42.059Z,99.90
2022-10-22T09:34:09.457Z,99.90
2022-10-22T09:36:38.416Z,99.90
2022-10-22T09:39:21.270Z,99.90
2022-10-22T09:41:48.753Z,99.90
2022-10-22T09:44:17.726Z,99.90
2022-10-22T09:46:46.494Z,99.90
2022-10-22T09:49:16.000Z,99.90
2022-10-22T09:51:55.645Z,99.90
2022-10-22T09:54:30.641Z,99.90
2022-10-22T09:57:03.414Z,99.90
2022-10-22T09:59:37.251Z,99.90
2022-10-22T10:02:20.138Z,99.90
2022-10-22T10:05:02.599Z,99.90
2022-10-22T10:07:33.884Z,99.90
2022-10-22T10:10:01.282Z,99.90
2022-10-22T10:12:34.622Z,99.90
2022-10-22T10:15:05.284Z,99.90
2022-10-22T10:17:35.892Z,99.90
2022-10-22T10:20:09.640Z,99.90
2022-10-22T10:22:52.226Z,99.90
2022-10-22T10:25:19.685Z,99.90
2022-10-22T10:28:02.518Z,99.90
2022-10-22T10:30:30.716Z,99.90
2022-10-22T10:33:16.730Z,99.90
2022-10-22T10:35:52.576Z,99.90
2022-10-22T10:38:29.695Z,99.90
2022-10-22T10:40:57.145Z,99.90
2022-10-22T10:43:27.632Z,99.90
2022-10-22T10:45:55.809Z,99.90
2022-10-22T10:48:22.967Z,99.90
2022-10-22T10:50:50.259Z,99.90
2022-10-22T10:53:36.381Z,99.90
2022-10-22T10:56:26.437Z,99.90
2022-10-22T10:58:54.143Z,99.90
2022-10-22T11:01:27.946Z,99.90
2022-10-22T11:04:14.217Z,99.90
2022-10-22T11:06:42.596Z,99.90
2022-10-22T11:09:21.317Z,99.90
2022-10-22T11:11:57.598Z,99.90
2022-10-22T11:14:31.186Z,99.90
2022-10-22T11:17:04.746Z,99.90
2022-10-22T11:19:50.635Z,99.90
2022-10-22T11:23:13.177Z,99.90
2022-10-22T11:25:35.092Z,99.90
2022-10-22T11:28:21.699Z,99.90
2022-10-22T11:30:51.706Z,99.90
2022-10-22T11:33:22.627Z,99.90
2022-10-22T11:35:50.945Z,99.90
2022-10-22T11:38:21.047Z,99.90
2022-10-22T11:40:51.466Z,99.90
2022-10-22T11:43:31.150Z,99.90
2022-10-22T11:46:21.766Z,99.90
2022-10-22T11:49:06.781Z,99.90
2022-10-22T11:51:38.402Z,99.90
2022-10-22T11:54:44.425Z,99.90
2022-10-22T11:57:14.778Z,99.70
2022-10-22T11:59:52.397Z,98.60
2022-10-22T12:02:24.240Z,98.60
2022-10-22T12:05:17.591Z,98.50
2022-10-22T12:08:15.593Z,98.10
2022-10-22T12:11:02.067Z,98.70
2022-10-22T12:13:31.640Z,98.80
2022-10-22T12:16:02.211Z,97.30
2022-10-22T12:18:35.304Z,97.60
2022-10-22T12:21:02.586Z,97.30
2022-10-22T12:23:32.395Z,97.40
2022-10-22T12:25:59.939Z,97.90
2022-10-22T12:28:29.930Z,97.00
2022-10-22T12:30:59.698Z,96.30
2022-10-22T12:33:28.599Z,97.10
2022-10-22T12:35:57.865Z,96.90
2022-10-22T12:38:25.736Z,97.60
2022-10-22T12:40:55.843Z,97.50
2022-10-22T12:43:27.668Z,97.90
2022-10-22T12:45:55.687Z,98.00
2022-10-22T12:48:25.432Z,98.20
2022-10-22T12:50:57.370Z,97.10
2022-10-22T12:53:27.919Z,97.90
2022-10-22T12:55:55.655Z,97.70
2022-10-22T12:58:29.203Z,97.60
2022-10-22T13:01:02.453Z,97.00
2022-10-22T13:03:35.535Z,97.00
2022-10-22T13:06:32.090Z,96.90
2022-10-22T13:08:59.652Z,96.60
2022-10-22T13:11:41.116Z,95.60
2022-10-22T13:14:18.360Z,95.70
2022-10-22T13:17:02.840Z,94.40
2022-10-22T13:19:48.906Z,95.00
2022-10-22T13:22:34.839Z,95.00
2022-10-22T13:25:05.427Z,94.40
2022-10-22T13:27:32.951Z,94.50
2022-10-22T13:30:02.191Z,94.00
2022-10-22T13:32:33.309Z,94.20
2022-10-22T13:35:01.685Z,94.60
2022-10-22T13:37:30.324Z,95.00
2022-10-22T13:39:57.544Z,94.80
2022-10-22T13:42:25.281Z,94.90
2022-10-22T13:44:52.808Z,94.50
2022-10-22T13:47:20.130Z,95.10
2022-10-22T13:49:48.018Z,95.30
2022-10-22T13:52:21.805Z,95.20
2022-10-22T13:54:49.173Z,95.40
2022-10-22T13:57:18.516Z,95.30
2022-10-22T13:59:45.943Z,93.10
2022-10-22T14:02:13.623Z,92.90
2022-10-22T14:04:42.742Z,92.00
2022-10-22T14:07:14.494Z,92.90
2022-10-22T14:09:42.111Z,93.00
2022-10-22T14:12:16.854Z,92.30
2022-10-22T14:14:44.460Z,93.50
2022-10-22T14:17:17.334Z,92.90
2022-10-22T14:19:45.996Z,94.20
2022-10-22T14:22:14.845Z,95.90
2022-10-22T14:24:42.288Z,95.30
2022-10-22T14:27:11.818Z,96.40
2022-10-22T14:29:38.822Z,97.00
2022-10-22T14:32:12.435Z,96.10
2022-10-22T14:34:40.030Z,95.60
2022-10-22T14:37:25.386Z,96.50
2022-10-22T14:39:59.949Z,96.30
2022-10-22T14:42:28.268Z,96.10
2022-10-22T14:44:55.767Z,97.50
2022-10-22T14:47:23.238Z,97.50
2022-10-22T14:49:50.940Z,97.80
2022-10-22T14:52:18.810Z,97.80
2022-10-22T14:54:46.386Z,97.80
2022-10-22T14:57:14.762Z,98.10
2022-10-22T14:59:42.277Z,97.80
2022-10-22T15:02:13.416Z,97.30
2022-10-22T15:04:40.985Z,97.40
2022-10-22T15:07:08.392Z,98.10
2022-10-22T15:09:35.728Z,97.70
2022-10-22T15:12:03.523Z,98.00
2022-10-22T15:14:31.293Z,97.00
2022-10-22T15:16:59.493Z,98.20
2022-10-22T15:19:27.058Z,98.60
2022-10-22T15:21:54.572Z,98.30
2022-10-22T15:24:24.194Z,98.70
2022-10-22T15:26:53.691Z,99.00
2022-10-22T15:29:21.187Z,99.10
2022-10-22T15:31:48.659Z,99.40
2022-10-22T15:34:23.748Z,99.50
2022-10-22T15:36:51.638Z,99.70
2022-10-22T15:39:19.180Z,99.90
2022-10-22T15:41:48.848Z,99.90
2022-10-22T15:44:19.418Z,99.90
2022-10-22T15:46:55.231Z,99.90
2022-10-22T15:49:27.858Z,99.90
2022-10-22T15:51:55.699Z,99.90
2022-10-22T15:54:30.497Z,99.10
2022-10-22T15:56:58.661Z,99.90
2022-10-22T15:59:26.297Z,99.90
2022-10-22T16:01:53.787Z,99.90
2022-10-22T16:04:21.139Z,99.90
2022-10-22T16:06:49.933Z,99.90
2022-10-22T16:09:19.204Z,99.90
2022-10-22T16:11:47.181Z,99.90
2022-10-22T16:14:16.555Z,99.90
2022-10-22T16:16:45.465Z,99.90
2022-10-22T16:19:13.652Z,99.90
2022-10-22T16:21:41.159Z,99.90
2022-10-22T16:24:09.152Z,99.90
2022-10-22T16:26:36.136Z,99.90
2022-10-22T16:29:03.732Z,99.90
2022-10-22T16:31:31.109Z,99.90
2022-10-22T16:33:59.809Z,99.90
2022-10-22T16:36:27.317Z,99.90
2022-10-22T16:38:55.468Z,99.90
2022-10-22T16:41:23.694Z,99.90
2022-10-22T16:43:54.773Z,99.90
2022-10-22T16:46:23.086Z,99.90
2022-10-22T16:48:52.133Z,99.90
2022-10-22T16:51:20.822Z,99.90
2022-10-22T16:53:48.413Z,99.90
2022-10-22T16:56:16.645Z,99.90
2022-10-22T16:58:44.443Z,99.90
2022-10-22T17:01:13.386Z,99.90
2022-10-22T17:03:42.460Z,99.90
2022-10-22T17:06:10.053Z,99.90
2022-10-22T17:08:37.664Z,99.90
2022-10-22T17:11:24.205Z,99.90
2022-10-22T17:13:53.083Z,99.90
2022-10-22T17:16:21.874Z,99.90
2022-10-22T17:18:49.442Z,99.90
2022-10-22T17:21:17.136Z,99.90
2022-10-22T17:23:44.818Z,99.90
2022-10-22T17:26:20.609Z,99.90
2022-10-22T17:28:47.911Z,99.90
2022-10-22T17:31:17.991Z,99.90
2022-10-22T17:33:45.584Z,99.90
2022-10-22T17:36:14.064Z,99.90
2022-10-22T17:38:42.329Z,99.90
2022-10-22T17:41:14.711Z,99.90
2022-10-22T17:43:41.969Z,99.90
2022-10-22T17:46:13.202Z,99.90
2022-10-22T17:48:49.922Z,99.90
2022-10-22T17:51:34.334Z,99.90
2022-10-22T17:54:14.324Z,99.90
2022-10-22T17:56:48.927Z,99.90
2022-10-22T17:59:22.216Z,99.90
2022-10-22T18:01:59.418Z,99.90
2022-10-22T18:04:27.508Z,99.90
2022-10-22T18:06:55.251Z,99.90
2022-10-22T18:09:23.073Z,99.90
2022-10-22T18:11:52.143Z,99.90
2022-10-22T18:14:20.311Z,99.90
2022-10-22T18:16:48.478Z,99.90
2022-10-22T18:19:18.048Z,99.90
2022-10-22T18:21:48.005Z,99.90
2022-10-22T18:24:15.526Z,99.90
2022-10-22T18:26:42.806Z,99.90
2022-10-22T18:29:10.401Z,99.90
2022-10-22T18:31:37.765Z,99.90
2022-10-22T18:34:04.673Z,99.90
2022-10-22T18:36:31.520Z,99.90
2022-10-22T18:38:59.463Z,99.90
2022-10-22T18:41:26.927Z,99.90
2022-10-22T18:43:58.534Z,99.90
2022-10-22T18:46:26.297Z,99.90
2022-10-22T18:48:56.734Z,99.90
2022-10-22T18:51:25.480Z,99.90
2022-10-22T18:54:05.207Z,99.90
2022-10-22T18:56:42.395Z,99.90
2022-10-22T18:59:18.940Z,99.90
2022-10-22T19:01:46.567Z,99.90
2022-10-22T19:04:14.535Z,99.90
2022-10-22T19:06:45.345Z,99.90
2022-10-22T19:09:14.850Z,99.90
2022-10-22T19:11:43.073Z,99.90
2022-10-22T19:14:10.714Z,99.90
2022-10-22T19:16:39.067Z,99.90
2022-10-22T19:19:07.131Z,99.90
2022-10-22T19:21:34.694Z,99.90
2022-10-22T19:24:02.178Z,99.90
2022-10-22T19:26:30.041Z,99.90
2022-10-22T19:29:00.470Z,99.90
2022-10-22T19:31:30.218Z,99.90
2022-10-22T19:33:57.730Z,99.90
2022-10-22T19:36:25.400Z,99.90
2022-10-22T19:38:52.649Z,99.90
2022-10-22T19:41:21.078Z,99.90
2022-10-22T19:43:49.161Z,99.90
2022-10-22T19:46:16.176Z,99.90
2022-10-22T19:48:43.336Z,99.90
2022-10-22T19:51:14.630Z,99.90
2022-10-22T19:53:41.670Z,99.90
2022-10-22T19:56:09.625Z,99.90
2022-10-22T19:58:37.893Z,99.90
2022-10-22T20:01:05.588Z,99.90
2022-10-22T20:03:32.812Z,99.90
2022-10-22T20:05:59.676Z,99.90
2022-10-22T20:08:26.495Z,99.90
2022-10-22T20:10:53.349Z,99.90
2022-10-22T20:13:20.371Z,99.90
2022-10-22T20:15:48.327Z,99.90
2022-10-22T20:18:15.271Z,99.90
2022-10-22T20:20:42.662Z,99.90
2022-10-22T20:23:09.514Z,99.90
2022-10-22T20:25:41.062Z,99.90
2022-10-22T20:28:07.966Z,99.90
2022-10-22T20:30:34.912Z,99.90
2022-10-22T20:33:02.136Z,99.90
2022-10-22T20:35:29.604Z,99.90
2022-10-22T20:37:57.028Z,99.90
2022-10-22T20:40:29.013Z,99.90
2022-10-22T20:43:03.630Z,99.90
2022-10-22T20:45:30.793Z,99.90
2022-10-22T20:48:02.781Z,99.90
2022-10-22T20:50:32.375Z,99.90
2022-10-22T20:52:59.945Z,99.90
2022-10-22T20:55:27.043Z,99.90
2022-10-22T20:57:54.322Z,99.90
2022-10-22T21:00:22.101Z,99.90
2022-10-22T21:02:52.217Z,99.90
2022-10-22T21:05:19.433Z,99.90
2022-10-22T21:07:46.802Z,99.90
2022-10-22T21:10:14.006Z,99.90
2022-10-22T21:12:50.615Z,99.90
2022-10-22T21:15:18.107Z,99.90
2022-10-22T21:17:46.202Z,99.90
2022-10-22T21:20:13.798Z,99.90
2022-10-22T21:22:41.309Z,99.90
2022-10-22T21:25:11.235Z,99.90
2022-10-22T21:27:41.794Z,99.90
2022-10-22T21:30:09.747Z,99.90
2022-10-22T21:32:46.831Z,99.90
2022-10-22T21:35:25.355Z,99.90
2022-10-22T21:37:55.842Z,99.90
2022-10-22T21:40:23.212Z,99.90
2022-10-22T21:42:50.884Z,99.90
2022-10-22T21:45:22.113Z,99.90
2022-10-22T21:47:49.981Z,99.90
2022-10-22T21:50:17.472Z,99.90
2022-10-22T21:52:44.931Z,99.90
2022-10-22T21:55:12.217Z,99.90
2022-10-22T21:57:39.961Z,99.90
2022-10-22T22:00:10.127Z,99.90
2022-10-22T22:02:48.575Z,99.90
2022-10-22T22:05:17.550Z,99.90
2022-10-22T22:07:45.197Z,99.90
2022-10-22T22:10:25.459Z,99.90
2022-10-22T22:12:53.303Z,99.90
2022-10-22T22:15:23.354Z,99.90
2022-10-22T22:17:54.510Z,99.90
2022-10-22T22:20:24.351Z,99.90
2022-10-22T22:22:52.017Z,99.90
2022-10-22T22:25:21.876Z,99.90
2022-10-22T22:27:49.365Z,99.90
2022-10-22T22:30:20.044Z,99.90
2022-10-22T22:32:50.150Z,99.90
2022-10-22T22:35:25.617Z,99.90
2022-10-22T22:37:53.156Z,99.90
2022-10-22T22:40:30.280Z,99.90
2022-10-22T22:43:00.588Z,99.90
2022-10-22T22:45:28.124Z,99.90
2022-10-22T22:47:55.407Z,99.90
2022-10-22T22:50:23.201Z,99.90
2022-10-22T22:52:50.567Z,99.90
2022-10-22T22:55:20.862Z,99.90
2022-10-22T22:57:48.407Z,99.90
2022-10-22T23:00:16.296Z,99.90
2022-10-22T23:02:43.974Z,99.90
2022-10-22T23:05:12.069Z,99.90
2022-10-22T23:07:39.476Z,99.90
2022-10-22T23:10:06.705Z,99.90
2022-10-22T23:12:34.056Z,99.90
2022-10-22T23:15:02.476Z,99.90
2022-10-22T23:17:30.163Z,99.90
2022-10-22T23:19:57.704Z,99.90
2022-10-22T23:22:25.088Z,99.90
2022-10-22T23:24:52.452Z,99.90
2022-10-22T23:27:19.877Z,99.90
2022-10-22T23:29:47.277Z,99.90
2022-10-22T23:32:14.866Z,99.90
2022-10-22T23:34:42.193Z,99.90
2022-10-22T23:37:11.206Z,99.90
2022-10-22T23:39:38.555Z,99.90
2022-10-22T23:42:06.084Z,99.90
2022-10-22T23:44:33.451Z,99.90
2022-10-22T23:47:04.008Z,99.90
2022-10-22T23:49:31.489Z,99.90
2022-10-22T23:52:01.552Z,99.90
2022-10-22T23:54:30.796Z,99.90
2022-10-22T23:56:58.237Z,99.90
2022-10-22T23:59:25.655Z,99.90
